createdAt,value
2023-03-10T00:01:37.427Z,98.7
2023-03-10T00:06:39.764Z,97.9
2023-03-10T00:11:41.699Z,144.8
2023-03-10T00:16:43.720Z,152.3
2023-03-10T00:21:48.566Z,142.1
2023-03-10T00:26:50.656Z,108.6
2023-03-10T00:31:52.675Z,68.5
2023-03-10T00:36:55.032Z,40.9
2023-03-10T00:41:57.167Z,29.5
2023-03-10T00:46:59.621Z,29
2023-03-10T00:52:01.604Z,26.9
2023-03-10T00:57:03.786Z,18.5
2023-03-10T01:02:05.818Z,12.6
2023-03-10T01:07:08.190Z,10.3
2023-03-10T01:12:10.159Z,9.2
2023-03-10T01:17:12.582Z,11.3
2023-03-10T01:22:14.643Z,11.5
2023-03-10T01:27:16.692Z,14.4
2023-03-10T01:32:18.708Z,17
2023-03-10T01:37:20.760Z,13.7
2023-03-10T01:42:22.783Z,9.7
2023-03-10T01:47:24.776Z,8.2
2023-03-10T01:52:26.772Z,8
2023-03-10T01:57:29.388Z,6.1
2023-03-10T02:02:34.790Z,5.4
2023-03-10T02:07:39.808Z,7.1
2023-03-10T02:12:43.629Z,5.4
2023-03-10T02:17:45.998Z,6.1
2023-03-10T02:22:48.270Z,5.3
2023-03-10T02:27:51.632Z,5.1
2023-03-10T02:32:53.665Z,5.4
2023-03-10T02:37:56.475Z,5
2023-03-10T02:42:59.846Z,4.8
2023-03-10T02:48:02.451Z,4.9
2023-03-10T02:53:11.051Z,4.6
2023-03-10T02:58:14.167Z,5.4
2023-03-10T03:03:21.739Z,4.8
2023-03-10T03:08:20.562Z,5
2023-03-10T03:13:23.102Z,6.7
2023-03-10T03:18:25.335Z,14.7
2023-03-10T03:23:28.406Z,10.8
2023-03-10T03:28:33.299Z,20.2
2023-03-10T03:33:36.251Z,10.5
2023-03-10T03:38:42.093Z,6.6
2023-03-10T03:43:44.232Z,5.6
2023-03-10T03:48:46.536Z,6.9
2023-03-10T03:53:48.543Z,5.9
2023-03-10T04:03:52.932Z,6.4
2023-03-10T04:08:59.787Z,7.3
2023-03-10T04:14:01.745Z,8.2
2023-03-10T04:19:03.958Z,8.6
2023-03-10T04:24:06.070Z,8.3
2023-03-10T04:29:08.120Z,9.8
2023-03-10T04:34:10.493Z,9.4
2023-03-10T04:39:12.768Z,10.9
2023-03-10T04:44:28.364Z,11.6
2023-03-10T04:49:23.676Z,10.9
2023-03-10T04:54:25.802Z,10.7
2023-03-10T04:59:27.984Z,11
2023-03-10T05:04:30.125Z,12.2
2023-03-10T05:09:32.640Z,13.4
2023-03-10T05:14:34.738Z,13.8
2023-03-10T05:19:36.982Z,12.2
2023-03-10T05:24:38.989Z,12
2023-03-10T05:29:41.030Z,12.1
2023-03-10T05:34:43.127Z,12.5
2023-03-10T05:39:45.263Z,11.1
2023-03-10T05:44:47.415Z,12.3
2023-03-10T05:49:49.713Z,11.7
2023-03-10T05:54:51.792Z,11.2
2023-03-10T05:59:53.851Z,11.6
2023-03-10T06:04:56.042Z,12.4
2023-03-10T06:09:59.058Z,12.1
2023-03-10T06:15:01.782Z,11.1
2023-03-10T06:20:03.792Z,11.6
2023-03-10T06:25:08.596Z,10.9
2023-03-10T06:30:10.581Z,11.4
2023-03-10T06:35:12.513Z,12
2023-03-10T06:40:14.900Z,12.4
2023-03-10T06:45:17.169Z,10.8
2023-03-10T06:50:19.248Z,10.8
2023-03-10T06:55:22.604Z,14
2023-03-10T07:00:25.094Z,10.8
2023-03-10T07:05:27.140Z,9.8
2023-03-10T07:10:29.347Z,11.3
2023-03-10T07:15:31.390Z,11.4
2023-03-10T07:20:33.483Z,11.3
2023-03-10T07:25:35.504Z,8.1
2023-03-10T07:30:37.592Z,7.5
2023-03-10T07:35:40.830Z,71.2
2023-03-10T07:40:43.091Z,51.1
2023-03-10T07:45:45.154Z,12.3
2023-03-10T07:50:47.666Z,16.7
2023-03-10T07:55:49.951Z,16.8
2023-03-10T08:00:51.938Z,17.7
2023-03-10T08:05:53.988Z,25.2
2023-03-10T08:10:56.260Z,14.6
2023-03-10T08:15:59.372Z,12
2023-03-10T08:21:02.141Z,12.7
2023-03-10T08:26:04.289Z,12.7
2023-03-10T08:31:06.358Z,10.8
2023-03-10T08:36:08.736Z,12.4
2023-03-10T08:41:12.036Z,41.4
2023-03-10T08:46:12.414Z,13.7
2023-03-10T08:51:15.685Z,13.8
2023-03-10T08:56:18.416Z,13.3
2023-03-10T09:01:22.843Z,10.8
2023-03-10T09:06:26.256Z,71
2023-03-10T09:11:28.402Z,134.3
2023-03-10T09:16:30.404Z,26
2023-03-10T09:21:33.916Z,5.3
2023-03-10T09:26:37.044Z,4.7
2023-03-10T09:31:39.173Z,5.7
2023-03-10T09:36:41.778Z,6.1
2023-03-10T09:41:43.836Z,5.7
2023-03-10T09:46:45.921Z,5.6
2023-03-10T09:51:48.133Z,6.5
2023-03-10T09:56:50.143Z,6.3
2023-03-10T10:01:55.388Z,6.3
2023-03-10T10:06:57.493Z,6.9
2023-03-10T10:11:59.850Z,7.6
2023-03-10T10:17:01.916Z,7.7
2023-03-10T10:22:04.403Z,6
2023-03-10T10:27:09.986Z,7.2
2023-03-10T10:32:12.145Z,6.9
2023-03-10T10:37:16.023Z,301.8
2023-03-10T10:42:18.407Z,94.2
2023-03-10T10:47:20.682Z,16
2023-03-10T10:52:22.674Z,17.2
2023-03-10T10:57:24.854Z,14.3
2023-03-10T11:02:27.033Z,23.4
2023-03-10T11:07:29.528Z,20.9
2023-03-10T11:12:32.038Z,24.5
2023-03-10T11:17:34.050Z,41
2023-03-10T11:22:36.168Z,75.3
2023-03-10T11:27:38.222Z,119.4
2023-03-10T11:32:40.196Z,179.9
2023-03-10T11:37:42.508Z,270.5
2023-03-10T11:42:44.451Z,269.5
2023-03-10T11:47:46.719Z,248.2
2023-03-10T11:52:50.835Z,264.8
2023-03-10T11:57:53.151Z,156.5
2023-03-10T12:02:55.279Z,69.1
2023-03-10T12:07:57.529Z,18.4
2023-03-10T12:12:59.667Z,33
2023-03-10T12:18:01.905Z,34.6
2023-03-10T12:23:04.364Z,27.3
2023-03-10T12:28:06.580Z,39.6
2023-03-10T12:33:09.136Z,29.5
2023-03-10T12:38:11.300Z,25.3
2023-03-10T12:43:13.404Z,28.1
2023-03-10T12:48:15.359Z,19.6
2023-03-10T12:53:17.354Z,18.6
2023-03-10T12:58:19.760Z,12.4
2023-03-10T13:03:21.760Z,6.5
2023-03-10T13:08:23.990Z,6.7
2023-03-10T13:13:26.517Z,8.1
2023-03-10T13:18:28.731Z,9.2
2023-03-10T13:23:30.833Z,12
2023-03-10T13:28:33.089Z,16
2023-03-10T13:33:40.271Z,15.1
2023-03-10T13:38:45.182Z,10.9
2023-03-10T13:43:48.673Z,8.5
2023-03-10T13:48:50.661Z,9.5
2023-03-10T13:53:52.742Z,11.1
2023-03-10T13:58:54.812Z,11.4
2023-03-10T14:03:57.313Z,11.7
2023-03-10T14:08:59.718Z,15.8
2023-03-10T14:14:01.957Z,14.8
2023-03-10T14:19:03.992Z,16
2023-03-10T14:24:06.026Z,17.4
2023-03-10T14:29:08.047Z,9
2023-03-10T14:34:10.099Z,23.9
2023-03-10T14:39:12.384Z,13
2023-03-10T14:44:14.805Z,31.5
2023-03-10T14:49:16.866Z,22
2023-03-10T14:54:20.003Z,37.6
2023-03-10T14:59:22.268Z,27.7
2023-03-10T15:04:24.492Z,44.4
2023-03-10T15:09:26.601Z,29.8
2023-03-10T15:14:28.863Z,21.8
2023-03-10T15:19:30.981Z,60.8
2023-03-10T15:24:33.185Z,19
2023-03-10T15:29:35.404Z,40.5
2023-03-10T15:34:37.585Z,43.1
2023-03-10T15:39:39.825Z,280.4
2023-03-10T15:44:41.943Z,95.9
2023-03-10T15:49:44.000Z,89.3
2023-03-10T15:54:46.082Z,169
2023-03-10T15:59:48.566Z,161.5
2023-03-10T16:04:51.039Z,127
2023-03-10T16:09:53.785Z,159.4
2023-03-10T16:14:55.994Z,206.7
2023-03-10T16:19:58.094Z,234.2
2023-03-10T16:25:01.111Z,285.8
2023-03-10T16:30:03.761Z,258.6
2023-03-10T16:35:06.639Z,178
2023-03-10T16:40:08.765Z,118
2023-03-10T16:45:11.166Z,53.1
2023-03-10T16:50:13.215Z,11.9
2023-03-10T16:55:15.282Z,4.2
2023-03-10T17:00:17.641Z,4.2
2023-03-10T17:05:21.261Z,4.2
2023-03-10T17:10:23.422Z,4.1
2023-03-10T17:15:25.458Z,4.1
2023-03-10T17:20:27.742Z,3.8
2023-03-10T17:25:29.764Z,4.5
2023-03-10T17:30:33.280Z,3
2023-03-10T17:35:35.752Z,3.5
2023-03-10T17:40:37.966Z,3.6
2023-03-10T17:45:40.229Z,4.6
2023-03-10T17:50:42.816Z,4.1
2023-03-10T17:55:44.828Z,4.2
2023-03-10T18:00:46.996Z,3.9
2023-03-10T18:05:48.985Z,4.3
2023-03-10T18:10:51.461Z,3.4
2023-03-10T18:15:53.848Z,3.9
2023-03-10T18:20:56.025Z,4.7
2023-03-10T18:25:58.125Z,4.8
2023-03-10T18:31:00.914Z,5
2023-03-10T18:36:07.828Z,3.8
2023-03-10T18:41:09.959Z,4.8
2023-03-10T18:46:12.028Z,4.2
2023-03-10T18:51:14.376Z,3.9
2023-03-10T18:56:16.477Z,5.4
2023-03-10T19:01:21.467Z,2.8
2023-03-10T19:06:23.767Z,3.9
2023-03-10T19:11:25.989Z,3.7
2023-03-10T19:16:28.943Z,3.4
2023-03-10T19:21:31.218Z,5
2023-03-10T19:26:33.595Z,3.5
2023-03-10T19:31:35.752Z,3.4
2023-03-10T19:36:38.161Z,3.8
2023-03-10T19:41:40.240Z,4.6
2023-03-10T19:46:43.537Z,4.5
2023-03-10T19:51:46.233Z,5.3
2023-03-10T19:56:48.283Z,4.7
2023-03-10T20:01:50.442Z,4.9
2023-03-10T20:06:52.601Z,4.6
2023-03-10T20:11:55.178Z,5.5
2023-03-10T20:16:58.389Z,6.2
2023-03-10T20:22:00.674Z,5.5
2023-03-10T20:27:03.052Z,4.8
2023-03-10T20:32:05.733Z,5.9
2023-03-10T20:37:14.620Z,6.1
2023-03-10T20:42:16.600Z,6.6
2023-03-10T20:47:18.609Z,6.4
2023-03-10T20:52:20.675Z,6.6
2023-03-10T20:57:22.772Z,6.6
2023-03-10T21:02:24.925Z,6.6
2023-03-10T21:07:27.209Z,6.3
2023-03-10T21:12:29.208Z,5.2
2023-03-10T21:17:31.616Z,6
2023-03-10T21:22:33.644Z,5
2023-03-10T21:27:35.650Z,4.6
2023-03-10T21:32:37.754Z,5.2
2023-03-10T21:37:42.111Z,5.2
2023-03-10T21:42:44.820Z,4.4
2023-03-10T21:47:46.896Z,4.9
2023-03-10T21:52:49.416Z,5
2023-03-10T21:57:52.019Z,5.8
2023-03-10T22:02:54.126Z,7.2
2023-03-10T22:07:56.073Z,7
2023-03-10T22:12:58.565Z,8.1
2023-03-10T22:18:00.667Z,9.6
2023-03-10T22:23:02.705Z,11.7
2023-03-10T22:28:04.717Z,11.8
2023-03-10T22:33:06.703Z,15.5
2023-03-10T22:38:08.958Z,17.9
2023-03-10T22:43:10.987Z,20.9
2023-03-10T22:48:13.218Z,19.6
2023-03-10T22:53:15.293Z,26.9
2023-03-10T22:58:17.628Z,32.8
2023-03-10T23:03:19.735Z,35.1
2023-03-10T23:08:22.551Z,35
2023-03-10T23:13:24.632Z,32.6
2023-03-10T23:18:29.190Z,30.8
2023-03-10T23:23:31.237Z,25.4
2023-03-10T23:28:33.445Z,21.1
2023-03-10T23:33:35.483Z,14.7
2023-03-10T23:38:37.579Z,16.5
2023-03-10T23:43:39.718Z,21.7
2023-03-10T23:48:41.890Z,34.3
2023-03-10T23:53:43.948Z,45
2023-03-10T23:58:46.223Z,58.2
